Santa Coloma de Gramanet, Spain
Current Conditions -  °F | °C
As of 2:30 PM on Thursday 30 Oct 2014 (Local Time) from LELL Reporting Station
Few Clouds Few Clouds  
Wind Chill: 68°   Ceiling: Unl
Heat Index: 68°   Visibility: 5mi
Dew Point: 63°   Wind: 9mph
Humidity: 83%   Direction: 130°SE
Pressure: 30.18"   Gusts: NA
Location:  41.45°N, 2.22°E
Report Text: LELL 301330Z 13008KT 8000 FEW015 20/17 Q1022
Loading
Personal Weather Stations






























Interactive Weather Map
Tropical Storm Tracking
New forecast layout! Learn more

10-Day Weather Forecast

Advertisements
Track Severe Weather on mobile